createdAt,value
2018-09-25T15:34:47.760Z,64.10
2018-09-25T15:37:21.518Z,64.40
2018-09-25T15:39:55.124Z,64.60
2018-09-25T15:42:28.692Z,64.20
2018-09-25T15:45:02.280Z,65.00
2018-09-25T15:47:36.885Z,65.30
2018-09-25T15:50:10.371Z,65.60
2018-09-25T15:52:43.715Z,67.20
2018-09-25T15:55:17.384Z,66.20
2018-09-25T15:57:51.075Z,65.70
2018-09-25T16:00:25.284Z,65.90
2018-09-25T16:02:58.879Z,66.40
2018-09-25T16:05:32.437Z,65.70
2018-09-25T16:08:05.780Z,66.20
2018-09-25T16:10:39.444Z,67.80
2018-09-25T16:13:12.932Z,68.00
2018-09-25T16:15:46.076Z,69.00
2018-09-25T16:18:19.672Z,67.60
2018-09-25T16:20:53.203Z,67.90
2018-09-25T16:23:26.700Z,67.90
2018-09-25T16:26:00.054Z,68.00
2018-09-25T16:28:33.685Z,68.70
2018-09-25T16:31:07.480Z,68.90
2018-09-25T16:33:41.136Z,67.80
2018-09-25T16:36:14.620Z,68.80
2018-09-25T16:38:48.162Z,68.60
2018-09-25T16:41:21.663Z,69.20
2018-09-25T16:43:54.956Z,69.60
2018-09-25T16:46:28.337Z,69.40
2018-09-25T16:49:01.889Z,70.50
2018-09-25T16:51:35.148Z,69.60
2018-09-25T16:54:08.546Z,69.00
2018-09-25T16:56:42.029Z,69.50
2018-09-25T16:59:15.484Z,69.60
2018-09-25T17:01:48.889Z,69.70
2018-09-25T17:04:22.508Z,69.00
2018-09-25T17:06:55.998Z,70.70
2018-09-25T17:09:29.484Z,71.40
2018-09-25T17:12:03.141Z,71.30
2018-09-25T17:14:36.642Z,71.40
2018-09-25T17:17:09.992Z,70.00
2018-09-25T17:19:43.743Z,70.90
2018-09-25T17:22:17.424Z,71.40
2018-09-25T17:24:50.904Z,71.10
2018-09-25T17:27:24.525Z,70.60
2018-09-25T17:29:58.152Z,70.90
2018-09-25T17:32:31.732Z,72.10
2018-09-25T17:35:05.408Z,73.00
2018-09-25T17:37:38.913Z,72.70
2018-09-25T17:40:12.389Z,72.90
2018-09-25T17:42:45.895Z,74.10
2018-09-25T17:45:19.417Z,73.60
2018-09-25T17:47:52.896Z,74.00
2018-09-25T17:50:26.050Z,73.80
2018-09-25T17:52:59.556Z,74.00
2018-09-25T17:55:33.009Z,74.90
2018-09-25T17:58:06.717Z,74.50
2018-09-25T18:00:40.284Z,74.80
2018-09-25T18:03:13.596Z,75.20
2018-09-25T18:05:47.041Z,74.90
2018-09-25T18:08:20.519Z,73.80
2018-09-25T18:10:54.136Z,73.10
2018-09-25T18:13:27.589Z,73.20
2018-09-25T18:16:01.048Z,74.10
2018-09-25T18:18:34.781Z,74.60
2018-09-25T18:21:08.749Z,74.40
2018-09-25T18:23:42.425Z,74.60
2018-09-25T18:28:52.604Z,75.00
2018-09-25T18:31:26.141Z,76.40
2018-09-25T18:33:59.833Z,76.30
2018-09-25T18:36:33.477Z,77.70
2018-09-25T18:39:06.836Z,78.10
2018-09-25T18:41:40.368Z,77.60
2018-09-25T18:44:13.884Z,78.10
2018-09-25T18:46:47.579Z,78.50
2018-09-25T18:49:20.946Z,78.20
2018-09-25T18:51:56.447Z,78.80
2018-09-25T18:54:29.938Z,78.40
2018-09-25T18:57:03.548Z,78.90
2018-09-25T18:59:37.956Z,78.50
2018-09-25T19:02:11.596Z,78.70
2018-09-25T19:04:45.095Z,78.70
2018-09-25T19:07:18.637Z,78.50
2018-09-25T19:09:52.117Z,79.30
2018-09-25T19:12:25.637Z,79.20
2018-09-25T19:14:58.992Z,79.70
2018-09-25T19:17:32.475Z,79.50
2018-09-25T19:20:06.103Z,79.90
2018-09-25T19:22:39.605Z,79.80
2018-09-25T19:25:13.228Z,79.80
2018-09-25T19:27:46.744Z,79.70
2018-09-25T19:30:20.633Z,80.20
2018-09-25T19:32:54.209Z,80.90
2018-09-25T19:35:27.845Z,81.00
2018-09-25T19:38:01.818Z,80.20
2018-09-25T19:40:35.516Z,80.90
2018-09-25T19:43:09.036Z,81.60
2018-09-25T19:45:42.444Z,82.50
2018-09-25T19:48:16.144Z,82.60
2018-09-25T19:50:49.652Z,83.10
2018-09-25T19:53:22.918Z,83.50
2018-09-25T19:55:56.589Z,84.00
2018-09-25T19:58:30.080Z,83.60
2018-09-25T20:01:03.821Z,83.60
2018-09-25T20:03:37.516Z,84.20
2018-09-25T20:06:11.332Z,83.80
2018-09-25T20:08:44.837Z,84.30
2018-09-25T20:11:18.422Z,84.60
2018-09-25T20:13:52.017Z,84.70
2018-09-25T20:16:25.557Z,85.50
2018-09-25T20:18:59.075Z,85.90
2018-09-25T20:21:32.890Z,85.70
2018-09-25T20:24:06.377Z,86.90
2018-09-25T20:26:40.399Z,86.90
2018-09-25T20:29:20.549Z,87.50
2018-09-25T20:31:54.317Z,87.20
2018-09-25T20:34:28.300Z,88.70
2018-09-25T20:37:01.858Z,88.80
2018-09-25T20:39:35.633Z,88.60
2018-09-25T20:42:09.405Z,89.60
2018-09-25T20:44:42.771Z,90.10
2018-09-25T20:47:16.549Z,90.30
2018-09-25T20:49:50.335Z,90.90
2018-09-25T20:52:23.496Z,90.70
2018-09-25T20:54:56.901Z,90.90
2018-09-25T20:57:30.330Z,91.00
2018-09-25T21:00:04.361Z,91.50
2018-09-25T21:02:38.999Z,91.80
2018-09-25T21:05:19.115Z,91.70
2018-09-25T21:08:01.986Z,91.80
2018-09-25T21:10:35.456Z,92.50
2018-09-25T21:13:08.956Z,91.70
2018-09-25T21:15:42.692Z,92.00
2018-09-25T21:18:16.128Z,92.60
2018-09-25T21:20:49.743Z,93.30
2018-09-25T21:23:23.274Z,93.80
2018-09-25T21:25:56.618Z,94.70
2018-09-25T21:28:30.105Z,94.90
2018-09-25T21:31:03.772Z,95.00
2018-09-25T21:33:37.187Z,94.90
2018-09-25T21:36:10.842Z,94.60
2018-09-25T21:38:44.284Z,94.30
2018-09-25T21:41:17.739Z,94.40
2018-09-25T21:43:51.309Z,94.40
2018-09-25T21:46:24.633Z,94.00
2018-09-25T21:48:58.341Z,94.10
2018-09-25T21:51:32.275Z,93.40
2018-09-25T21:56:40.096Z,93.30
2018-09-25T21:59:13.757Z,93.40
2018-09-25T22:01:47.249Z,93.60
2018-09-25T22:04:21.148Z,93.90
2018-09-25T22:06:54.641Z,94.40
2018-09-25T22:09:28.301Z,94.20
2018-09-25T22:12:01.892Z,94.30
2018-09-25T22:14:35.894Z,94.20
2018-09-25T22:17:09.368Z,94.50
2018-09-25T22:19:43.373Z,94.00
2018-09-25T22:24:50.597Z,94.10
2018-09-25T22:27:24.070Z,94.40
2018-09-25T22:29:57.476Z,94.90
2018-09-25T22:32:30.920Z,94.90
2018-09-25T22:35:04.252Z,95.20
2018-09-25T22:37:37.753Z,95.30
2018-09-25T22:40:11.324Z,95.50
2018-09-25T22:42:45.032Z,95.60
2018-09-25T22:48:21.841Z,95.90
2018-09-25T22:50:55.741Z,96.00
2018-09-25T22:53:29.167Z,96.10
2018-09-25T22:56:03.042Z,96.20
2018-09-25T22:58:36.517Z,96.40
2018-09-25T23:01:10.096Z,96.60
2018-09-25T23:03:43.739Z,96.70
2018-09-25T23:06:17.404Z,96.70
2018-09-25T23:08:50.841Z,96.90
2018-09-25T23:11:24.285Z,97.00
2018-09-25T23:13:57.854Z,97.30
2018-09-25T23:16:31.316Z,97.50
2018-09-25T23:19:04.756Z,96.80
2018-09-25T23:21:38.253Z,96.70
2018-09-25T23:24:11.645Z,96.20
2018-09-25T23:26:45.152Z,96.00
2018-09-25T23:29:18.761Z,96.00
2018-09-25T23:31:52.161Z,95.90
2018-09-25T23:34:25.478Z,96.20
2018-09-25T23:36:58.952Z,96.60
2018-09-25T23:39:34.231Z,96.50
2018-09-25T23:42:08.477Z,97.10
2018-09-25T23:44:43.848Z,97.00
2018-09-25T23:47:17.062Z,96.50
2018-09-25T23:49:52.302Z,96.80
2018-09-25T23:53:24.300Z,97.00
2018-09-25T23:55:56.794Z,97.10
2018-09-25T23:58:28.988Z,97.60
